Time;durP1;ratioP1;P1;durP2;ratioP2;P2;SDS_P1;SDS_P2;PMS_P1;PMS_P2;Temp;Humidity;BMP_temperature;BMP_pressure;BME280_temperature;BME280_humidity;BME280_pressure;Samples;Min_cycle;Max_cycle;Signal;HPM_P1;HPM_P2
2022/10/11 00:00:12;;;;;;;13.13;9.45;;;;;;;;;;5012635;28;20037;-63
2022/10/11 00:02:37;;;;;;;11.65;8.82;;;;;;;;;;5012814;28;20026;-63
2022/10/11 00:05:03;;;;;;;12.73;9.25;;;;;;;;;;5012463;28;20080;-64
2022/10/11 00:07:29;;;;;;;12.25;9.13;;;;;;;;;;5012653;28;20029;-63
2022/10/11 00:09:54;;;;;;;11.27;9.35;;;;;;;;;;5012369;28;20466;-63
2022/10/11 00:12:19;;;;;;;12.30;8.90;;;;;;;;;;5012743;28;20030;-64
2022/10/11 00:14:45;;;;;;;11.63;9.38;;;;;;;;;;5012577;28;20485;-64
2022/10/11 00:17:10;;;;;;;12.00;9.13;;;;;;;;;;5012682;28;20034;-64
2022/10/11 00:19:36;;;;;;;11.98;9.55;;;;;;;;;;5018018;28;20461;-65
2022/10/11 00:22:01;;;;;;;9.65;8.50;;;;;;;;;;5033311;28;20429;-65
2022/10/11 00:24:27;;;;;;;14.25;9.05;;;;;;;;;;5036191;28;20035;-65
2022/10/11 00:26:52;;;;;;;11.70;8.70;;;;;;;;;;5034955;28;20144;-65
2022/10/11 00:29:18;;;;;;;9.95;8.20;;;;;;;;;;5035543;28;20037;-65
2022/10/11 00:31:44;;;;;;;9.75;8.75;;;;;;;;;;5036102;28;20037;-65
2022/10/11 00:34:10;;;;;;;11.68;8.63;;;;;;;;;;5036049;28;20029;-64
2022/10/11 00:36:36;;;;;;;10.43;8.57;;;;;;;;;;5036344;28;20048;-64
2022/10/11 00:39:03;;;;;;;13.85;9.73;;;;;;;;;;5036057;28;20033;-64
2022/10/11 00:41:28;;;;;;;11.32;8.85;;;;;;;;;;5036196;28;20025;-64
2022/10/11 00:44:13;;;;;;;11.93;9.73;;;;;;;;;;5035941;28;20377;-64
2022/10/11 00:46:41;;;;;;;12.50;9.00;;;;;;;;;;5035717;28;20032;-64
2022/10/11 00:49:33;;;;;;;12.35;9.38;;;;;;;;;;5035792;28;20068;-65
2022/10/11 00:52:05;;;;;;;11.90;8.70;;;;;;;;;;5034458;28;20493;-65
2022/10/11 00:54:34;;;;;;;13.40;9.02;;;;;;;;;;5036107;28;20072;-65
2022/10/11 00:57:06;;;;;;;10.48;9.23;;;;;;;;;;5035676;28;20013;-65
2022/10/11 00:59:36;;;;;;;11.55;8.95;;;;;;;;;;5036024;28;20121;-65
2022/10/11 01:02:02;;;;;;;;;;;;;;;;;;5035869;28;20033;-64
2022/10/11 01:04:28;;;;;;;12.82;8.55;;;;;;;;;;5035607;28;19967;-65
2022/10/11 01:06:54;;;;;;;11.48;9.40;;;;;;;;;;5035857;28;20053;-65
2022/10/11 01:09:21;;;;;;;10.50;8.85;;;;;;;;;;5035899;28;20461;-64
2022/10/11 01:11:49;;;;;;;10.98;8.60;;;;;;;;;;5033492;28;20103;-64
2022/10/11 01:14:38;;;;;;;10.00;8.90;;;;;;;;;;5035538;28;20053;-61
2022/10/11 01:17:23;;;;;;;10.70;8.32;;;;;;;;;;5035757;28;20428;-62
2022/10/11 01:20:10;;;;;;;11.48;8.80;;;;;;;;;;5035387;28;20037;-62
2022/10/11 01:23:07;;;;;;;11.05;8.43;;;;;;;;;;5034039;28;20033;-62
2022/10/11 01:26:19;;;;;;;12.38;8.88;;;;;;;;;;5034282;28;20124;-62
2022/10/11 01:28:57;;;;;;;13.55;8.95;;;;;;;;;;5033343;28;20529;-62
2022/10/11 01:31:36;;;;;;;11.45;8.60;;;;;;;;;;5035429;28;20037;-61
2022/10/11 01:34:12;;;;;;;10.50;8.77;;;;;;;;;;5015237;28;20105;-61
2022/10/11 01:37:13;;;;;;;12.85;8.95;;;;;;;;;;5015628;28;20080;-61
2022/10/11 01:40:08;;;;;;;12.05;9.20;;;;;;;;;;5019507;28;20046;-63
2022/10/11 01:42:38;;;;;;;13.38;8.52;;;;;;;;;;5021660;28;20103;-63
2022/10/11 01:45:06;;;;;;;13.65;9.00;;;;;;;;;;5034662;28;20041;-63
2022/10/11 01:47:33;;;;;;;10.07;8.45;;;;;;;;;;5034769;28;20049;-63
2022/10/11 01:50:00;;;;;;;9.90;7.85;;;;;;;;;;5033695;28;20040;-64
2022/10/11 01:52:30;;;;;;;10.63;7.95;;;;;;;;;;5031161;28;20064;-63
2022/10/11 01:55:08;;;;;;;10.68;8.27;;;;;;;;;;5031439;28;20088;-64
2022/10/11 01:57:45;;;;;;;11.07;8.80;;;;;;;;;;5033197;28;20413;-64
2022/10/11 02:00:23;;;;;;;9.77;8.73;;;;;;;;;;5032701;28;20075;-64
2022/10/11 02:02:51;;;;;;;11.02;8.48;;;;;;;;;;5032068;28;20029;-64
2022/10/11 02:05:25;;;;;;;11.00;8.73;;;;;;;;;;5030550;28;20367;-64
2022/10/11 02:08:02;;;;;;;9.80;7.97;;;;;;;;;;5032411;28;20061;-64
2022/10/11 02:10:41;;;;;;;9.85;8.10;;;;;;;;;;5032086;28;20521;-66
2022/10/11 02:13:18;;;;;;;11.48;8.30;;;;;;;;;;5013657;28;20046;-66
2022/10/11 02:15:46;;;;;;;9.65;7.93;;;;;;;;;;5013535;28;20046;-64
2022/10/11 02:18:16;;;;;;;10.48;7.95;;;;;;;;;;5014749;28;20026;-63
2022/10/11 02:20:42;;;;;;;;;;;;;;;;;;5015215;28;20038;-64
2022/10/11 02:23:13;;;;;;;9.98;7.85;;;;;;;;;;5014590;28;20008;-64
2022/10/11 02:25:41;;;;;;;10.40;8.32;;;;;;;;;;5014625;28;20025;-64
2022/10/11 02:28:13;;;;;;;11.55;8.20;;;;;;;;;;5012937;28;20018;-63
2022/10/11 02:30:40;;;;;;;12.13;8.23;;;;;;;;;;5014502;28;20038;-63
2022/10/11 02:33:12;;;;;;;11.10;8.15;;;;;;;;;;5014256;28;20473;-66
2022/10/11 02:35:46;;;;;;;10.23;8.10;;;;;;;;;;5014489;28;20030;-63
2022/10/11 02:38:23;;;;;;;9.40;7.88;;;;;;;;;;5014432;28;20022;-63
2022/10/11 02:41:00;;;;;;;11.35;8.23;;;;;;;;;;5013542;28;20389;-64
2022/10/11 02:43:31;;;;;;;14.05;8.35;;;;;;;;;;5014040;28;20125;-63
2022/10/11 02:45:59;;;;;;;10.57;8.50;;;;;;;;;;5012047;28;20486;-63
2022/10/11 02:48:28;;;;;;;10.80;8.20;;;;;;;;;;5013905;28;20125;-64
2022/10/11 02:50:55;;;;;;;10.52;7.88;;;;;;;;;;5013967;28;20021;-64
2022/10/11 02:53:21;;;;;;;9.60;7.95;;;;;;;;;;5013843;28;20037;-64
2022/10/11 02:55:48;;;;;;;12.55;8.93;;;;;;;;;;5013731;28;20029;-63
2022/10/11 02:58:14;;;;;;;10.50;8.15;;;;;;;;;;5014000;28;20064;-63
2022/10/11 03:00:39;;;;;;;13.48;8.07;;;;;;;;;;5013966;28;20049;-62
2022/10/11 03:03:05;;;;;;;10.55;8.23;;;;;;;;;;5013815;28;20021;-63
2022/10/11 03:05:35;;;;;;;11.02;8.40;;;;;;;;;;5013824;28;20417;-62
2022/10/11 03:08:01;;;;;;;9.73;8.23;;;;;;;;;;5013889;28;20018;-63
2022/10/11 03:10:27;;;;;;;9.95;8.10;;;;;;;;;;5013354;28;20022;-63
2022/10/11 03:12:52;;;;;;;10.77;8.00;;;;;;;;;;5013794;28;20540;-65
2022/10/11 03:15:18;;;;;;;9.73;7.88;;;;;;;;;;5013731;28;20543;-63
2022/10/11 03:17:43;;;;;;;10.10;7.53;;;;;;;;;;5013635;28;20274;-63
2022/10/11 03:20:09;;;;;;;9.52;8.10;;;;;;;;;;5013678;28;20057;-64
2022/10/11 03:22:34;;;;;;;11.25;8.10;;;;;;;;;;5013523;28;20484;-63
2022/10/11 03:25:00;;;;;;;10.05;8.05;;;;;;;;;;5013314;28;20106;-62
2022/10/11 03:27:25;;;;;;;8.82;7.93;;;;;;;;;;5013297;28;20030;-62
2022/10/11 03:29:50;;;;;;;8.30;7.40;;;;;;;;;;5013344;28;20029;-63
2022/10/11 03:32:16;;;;;;;11.85;8.05;;;;;;;;;;5013499;28;20482;-63
2022/10/11 03:34:41;;;;;;;9.93;7.68;;;;;;;;;;5013474;28;20092;-65
2022/10/11 03:37:07;;;;;;;11.07;8.10;;;;;;;;;;5013335;28;20528;-62
2022/10/11 03:39:32;;;;;;;9.27;7.60;;;;;;;;;;5013006;28;20544;-63
2022/10/11 03:41:58;;;;;;;11.90;7.45;;;;;;;;;;5013062;28;20022;-63
2022/10/11 03:44:23;;;;;;;9.45;7.78;;;;;;;;;;5012906;28;20042;-62
2022/10/11 03:46:49;;;;;;;11.10;7.93;;;;;;;;;;5013015;28;20435;-62
2022/10/11 03:49:14;;;;;;;9.82;8.00;;;;;;;;;;5013147;28;20390;-62
2022/10/11 03:51:39;;;;;;;8.93;7.28;;;;;;;;;;5013022;28;20516;-63
2022/10/11 03:54:05;;;;;;;11.13;7.60;;;;;;;;;;5011573;28;20030;-62
2022/10/11 03:56:31;;;;;;;9.77;7.68;;;;;;;;;;5011916;28;20022;-62
2022/10/11 03:58:56;;;;;;;11.20;7.97;;;;;;;;;;5012712;28;20052;-65
2022/10/11 04:01:22;;;;;;;11.88;7.93;;;;;;;;;;5012722;28;20026;-63
2022/10/11 04:03:47;;;;;;;9.98;8.48;;;;;;;;;;5012623;28;20030;-65
2022/10/11 04:06:13;;;;;;;9.35;7.53;;;;;;;;;;5012799;28;20050;-63
2022/10/11 04:08:38;;;;;;;10.00;7.47;;;;;;;;;;5012632;28;20041;-63
2022/10/11 04:11:04;;;;;;;9.48;7.65;;;;;;;;;;5012536;28;20026;-63
2022/10/11 04:13:30;;;;;;;9.02;7.15;;;;;;;;;;5012688;28;20018;-62
2022/10/11 04:15:55;;;;;;;10.45;7.97;;;;;;;;;;5012493;28;20474;-62
2022/10/11 04:18:21;;;;;;;10.98;8.05;;;;;;;;;;5012730;28;20040;-63
2022/10/11 04:20:46;;;;;;;8.98;7.75;;;;;;;;;;5012827;28;20489;-62
2022/10/11 04:23:11;;;;;;;9.52;7.72;;;;;;;;;;5012679;28;20032;-63
2022/10/11 04:25:38;;;;;;;10.23;7.25;;;;;;;;;;5012721;28;20466;-63
2022/10/11 04:28:06;;;;;;;11.52;7.53;;;;;;;;;;5012349;28;20212;-63
2022/10/11 04:30:32;;;;;;;9.32;7.35;;;;;;;;;;5012477;28;20034;-63
2022/10/11 04:32:57;;;;;;;8.93;7.75;;;;;;;;;;5012343;28;20416;-63
2022/10/11 04:35:23;;;;;;;9.35;7.35;;;;;;;;;;5012348;28;20029;-63
2022/10/11 04:37:48;;;;;;;12.15;7.90;;;;;;;;;;5012568;28;20037;-63
2022/10/11 04:40:14;;;;;;;10.27;7.68;;;;;;;;;;5012354;28;20064;-63
2022/10/11 04:42:39;;;;;;;8.73;7.25;;;;;;;;;;5012558;28;20033;-63
2022/10/11 04:45:05;;;;;;;8.75;7.55;;;;;;;;;;5010815;28;20450;-63
2022/10/11 04:47:30;;;;;;;9.90;7.00;;;;;;;;;;5012572;28;20068;-63
2022/10/11 04:49:56;;;;;;;8.55;7.65;;;;;;;;;;5012465;28;20026;-63
2022/10/11 04:52:21;;;;;;;8.38;6.80;;;;;;;;;;5012238;28;20355;-63
2022/10/11 04:54:47;;;;;;;9.45;7.05;;;;;;;;;;5012295;28;20029;-63
2022/10/11 04:57:12;;;;;;;9.98;7.28;;;;;;;;;;5012348;28;20021;-65
2022/10/11 04:59:38;;;;;;;8.45;7.57;;;;;;;;;;5012458;28;20029;-66
2022/10/11 05:02:03;;;;;;;10.65;7.40;;;;;;;;;;5010867;28;20088;-63
2022/10/11 05:04:29;;;;;;;10.85;6.93;;;;;;;;;;5012223;28;20018;-66
2022/10/11 05:06:54;;;;;;;9.35;7.60;;;;;;;;;;5012305;28;20026;-62
2022/10/11 05:09:20;;;;;;;8.73;7.20;;;;;;;;;;5015125;28;20029;-64
2022/10/11 05:11:46;;;;;;;10.85;7.22;;;;;;;;;;5015596;28;20672;-65
2022/10/11 05:14:11;;;;;;;9.60;6.88;;;;;;;;;;5015943;28;20116;-63
2022/10/11 05:16:37;;;;;;;10.00;7.57;;;;;;;;;;5015545;28;20018;-65
2022/10/11 05:19:02;;;;;;;10.35;7.10;;;;;;;;;;5015563;28;20025;-63
2022/10/11 05:21:28;;;;;;;9.23;6.93;;;;;;;;;;5015412;28;20037;-62
2022/10/11 05:23:56;;;;;;;8.93;7.43;;;;;;;;;;5015440;28;20498;-62
2022/10/11 05:26:23;;;;;;;11.35;7.50;;;;;;;;;;5015717;28;20025;-64
2022/10/11 05:28:48;;;;;;;10.68;6.88;;;;;;;;;;5015432;28;20030;-64
2022/10/11 05:31:15;;;;;;;7.70;6.38;;;;;;;;;;5015463;28;20117;-62
2022/10/11 05:33:40;;;;;;;10.48;6.90;;;;;;;;;;5015415;28;20505;-64
2022/10/11 05:36:07;;;;;;;8.95;6.80;;;;;;;;;;5015292;28;20030;-64
2022/10/11 05:38:33;;;;;;;9.77;7.20;;;;;;;;;;5015579;28;20022;-62
2022/10/11 05:41:02;;;;;;;9.15;6.97;;;;;;;;;;5015384;28;20366;-65
2022/10/11 05:43:29;;;;;;;9.20;7.10;;;;;;;;;;5015019;28;20030;-64
2022/10/11 05:45:55;;;;;;;8.23;6.60;;;;;;;;;;5014750;28;20045;-62
2022/10/11 05:48:20;;;;;;;8.88;7.03;;;;;;;;;;5015118;28;20457;-63
2022/10/11 05:50:46;;;;;;;9.55;7.10;;;;;;;;;;5014925;28;20037;-64
2022/10/11 05:53:12;;;;;;;7.97;6.50;;;;;;;;;;5014947;28;20478;-64
2022/10/11 05:55:39;;;;;;;8.05;7.13;;;;;;;;;;5014822;28;20026;-62
2022/10/11 05:58:09;;;;;;;8.30;7.07;;;;;;;;;;5014780;28;20028;-63
2022/10/11 06:00:36;;;;;;;10.07;6.68;;;;;;;;;;5014777;28;20018;-65
2022/10/11 06:03:04;;;;;;;8.43;6.78;;;;;;;;;;5014918;28;20033;-64
2022/10/11 06:05:29;;;;;;;8.40;6.82;;;;;;;;;;5014763;28;20029;-65
2022/10/11 06:07:57;;;;;;;9.65;6.93;;;;;;;;;;5013357;28;20417;-63
2022/10/11 06:10:22;;;;;;;7.60;6.72;;;;;;;;;;5014417;28;20030;-63
2022/10/11 06:12:48;;;;;;;8.55;7.18;;;;;;;;;;5014418;28;20030;-65
2022/10/11 06:15:13;;;;;;;9.13;6.60;;;;;;;;;;5014717;28;20032;-67
2022/10/11 06:17:39;;;;;;;9.73;7.03;;;;;;;;;;5014741;28;20470;-64
2022/10/11 06:20:05;;;;;;;9.85;6.82;;;;;;;;;;5014241;28;20461;-64
2022/10/11 06:22:30;;;;;;;9.25;6.82;;;;;;;;;;5046367;28;20072;-65
2022/10/11 06:24:56;;;;;;;11.05;6.70;;;;;;;;;;5014281;28;20486;-64
2022/10/11 06:27:21;;;;;;;9.52;7.07;;;;;;;;;;5014306;28;20409;-67
2022/10/11 06:29:47;;;;;;;9.05;6.80;;;;;;;;;;5014082;28;20064;-70
2022/10/11 06:32:12;;;;;;;8.10;6.70;;;;;;;;;;5015403;28;20029;-67
2022/10/11 06:34:38;;;;;;;9.20;6.68;;;;;;;;;;5013957;28;20034;-70
2022/10/11 06:37:03;;;;;;;9.10;6.75;;;;;;;;;;5014018;28;20030;-69
2022/10/11 06:39:29;;;;;;;11.05;7.00;;;;;;;;;;5013895;28;20068;-68
2022/10/11 06:41:54;;;;;;;7.32;6.38;;;;;;;;;;5014054;28;20357;-68
2022/10/11 06:44:19;;;;;;;10.40;6.90;;;;;;;;;;5013704;28;20038;-68
2022/10/11 06:46:45;;;;;;;8.27;6.78;;;;;;;;;;5013792;28;20026;-68
2022/10/11 06:49:11;;;;;;;8.95;6.88;;;;;;;;;;5012327;28;20034;-69
2022/10/11 06:51:36;;;;;;;9.48;6.72;;;;;;;;;;5013853;28;20041;-69
2022/10/11 06:54:02;;;;;;;9.00;7.28;;;;;;;;;;5013880;28;20092;-69
2022/10/11 06:56:30;;;;;;;8.57;7.22;;;;;;;;;;5013692;28;20485;-69
2022/10/11 06:58:57;;;;;;;10.15;7.20;;;;;;;;;;5013856;28;20034;-69
2022/10/11 07:01:23;;;;;;;8.73;7.30;;;;;;;;;;5013459;28;20022;-69
2022/10/11 07:03:51;;;;;;;10.90;7.10;;;;;;;;;;5045456;28;20428;-69
2022/10/11 07:06:20;;;;;;;9.90;7.15;;;;;;;;;;5013428;28;20462;-70
2022/10/11 07:08:46;;;;;;;10.07;7.05;;;;;;;;;;5013433;28;20056;-71
2022/10/11 07:11:19;;;;;;;9.40;6.72;;;;;;;;;;5013194;28;20030;-67
2022/10/11 07:14:03;;;;;;;10.13;7.35;;;;;;;;;;5020097;28;20053;-67
2022/10/11 07:16:28;;;;;;;8.10;6.97;;;;;;;;;;5040889;28;20079;-69
2022/10/11 07:18:57;;;;;;;8.32;6.82;;;;;;;;;;5040438;28;20029;-68
2022/10/11 07:21:24;;;;;;;10.18;7.72;;;;;;;;;;5037253;28;20080;-72
2022/10/11 07:23:50;;;;;;;10.93;7.03;;;;;;;;;;5037561;28;20481;-67
2022/10/11 07:26:16;;;;;;;10.20;7.60;;;;;;;;;;5041829;28;20064;-68
2022/10/11 07:28:41;;;;;;;8.63;7.28;;;;;;;;;;5040119;28;20075;-68
2022/10/11 07:31:10;;;;;;;11.20;7.15;;;;;;;;;;5042350;28;20115;-72
2022/10/11 07:33:36;;;;;;;9.32;7.45;;;;;;;;;;5042183;28;20022;-67
2022/10/11 07:36:03;;;;;;;10.48;6.88;;;;;;;;;;5039142;28;20061;-70
2022/10/11 07:38:28;;;;;;;8.85;7.00;;;;;;;;;;5042043;28;20028;-70
2022/10/11 07:40:54;;;;;;;10.15;8.13;;;;;;;;;;5041299;28;20025;-69
2022/10/11 07:43:19;;;;;;;14.43;8.15;;;;;;;;;;5040767;28;20059;-67
2022/10/11 07:45:47;;;;;;;9.63;7.72;;;;;;;;;;5042312;28;20033;-68
2022/10/11 07:48:13;;;;;;;10.30;7.68;;;;;;;;;;5041337;28;20029;-71
2022/10/11 07:50:39;;;;;;;9.38;7.32;;;;;;;;;;5042698;28;20025;-67
2022/10/11 07:53:04;;;;;;;10.63;7.95;;;;;;;;;;5039743;28;20026;-68
2022/10/11 07:55:34;;;;;;;9.00;7.45;;;;;;;;;;5040608;28;20041;-70
2022/10/11 07:57:59;;;;;;;8.60;7.70;;;;;;;;;;5040887;28;20032;-71
2022/10/11 08:00:25;;;;;;;11.60;7.80;;;;;;;;;;5042986;28;20022;-72
2022/10/11 08:02:50;;;;;;;9.55;7.60;;;;;;;;;;5043864;28;20099;-69
2022/10/11 08:05:16;;;;;;;12.15;8.05;;;;;;;;;;5046081;28;20123;-74
2022/10/11 08:07:41;;;;;;;10.55;8.20;;;;;;;;;;5042686;28;20029;-71
2022/10/11 08:10:08;;;;;;;8.10;7.20;;;;;;;;;;5041427;28;20087;-72
2022/10/11 08:12:33;;;;;;;11.05;8.20;;;;;;;;;;5041187;28;20103;-72
2022/10/11 08:14:59;;;;;;;9.32;7.70;;;;;;;;;;5042466;28;20119;-69
2022/10/11 08:17:25;;;;;;;12.57;7.97;;;;;;;;;;5040844;28;20075;-68
2022/10/11 08:19:51;;;;;;;9.65;7.38;;;;;;;;;;5049553;28;20535;-69
2022/10/11 08:22:16;;;;;;;8.82;7.70;;;;;;;;;;5052367;28;20070;-68
2022/10/11 08:24:42;;;;;;;11.13;7.85;;;;;;;;;;5046565;28;20429;-71
2022/10/11 08:27:07;;;;;;;10.63;7.50;;;;;;;;;;5037157;28;20025;-69
2022/10/11 08:29:33;;;;;;;11.95;7.68;;;;;;;;;;5031982;28;20013;-70
2022/10/11 08:31:58;;;;;;;9.57;7.80;;;;;;;;;;5030835;28;20049;-68
2022/10/11 08:34:24;;;;;;;11.20;7.90;;;;;;;;;;5028754;28;20040;-71
2022/10/11 08:36:49;;;;;;;10.02;7.45;;;;;;;;;;5027260;28;20026;-67
2022/10/11 08:39:15;;;;;;;15.05;7.40;;;;;;;;;;5025725;28;20411;-68
2022/10/11 08:41:48;;;;;;;12.30;7.38;;;;;;;;;;5025019;28;20036;-68
2022/10/11 08:44:19;;;;;;;9.75;7.40;;;;;;;;;;5029349;28;20030;-68
2022/10/11 08:46:52;;;;;;;9.25;7.60;;;;;;;;;;5034600;28;20513;-66
2022/10/11 08:49:22;;;;;;;15.27;7.10;;;;;;;;;;5030392;28;20025;-68
2022/10/11 08:51:58;;;;;;;9.93;7.20;;;;;;;;;;5030936;28;20034;-67
2022/10/11 08:54:48;;;;;;;10.20;7.13;;;;;;;;;;5035770;28;20036;-67
2022/10/11 08:57:20;;;;;;;10.85;7.43;;;;;;;;;;5037642;28;20040;-68
2022/10/11 08:59:56;;;;;;;9.27;7.22;;;;;;;;;;5038194;28;20113;-69
2022/10/11 09:02:37;;;;;;;11.63;7.45;;;;;;;;;;5036556;28;20025;-71
2022/10/11 09:05:03;;;;;;;8.48;7.28;;;;;;;;;;5050645;28;20029;-70
2022/10/11 09:07:55;;;;;;;10.85;7.22;;;;;;;;;;5049715;28;20025;-68
2022/10/11 09:10:36;;;;;;;8.60;7.18;;;;;;;;;;5033739;28;20588;-69
2022/10/11 09:13:41;;;;;;;14.77;7.53;;;;;;;;;;5032824;28;20025;-66
2022/10/11 09:16:24;;;;;;;8.60;6.40;;;;;;;;;;5040752;28;20155;-66
2022/10/11 09:19:14;;;;;;;10.25;6.97;;;;;;;;;;5036151;28;20032;-66
2022/10/11 09:21:55;;;;;;;;;;;;;;;;;;5035993;28;20032;-66
2022/10/11 09:24:36;;;;;;;12.48;6.63;;;;;;;;;;5035565;28;19921;-67
2022/10/11 09:27:30;;;;;;;8.45;6.78;;;;;;;;;;5035463;28;20029;-66
2022/10/11 09:30:08;;;;;;;10.27;7.00;;;;;;;;;;5034289;28;20120;-66
2022/10/11 09:32:39;;;;;;;14.18;6.88;;;;;;;;;;5035084;28;20025;-66
2022/10/11 09:35:17;;;;;;;9.45;7.43;;;;;;;;;;5035127;28;20064;-65
2022/10/11 09:37:58;;;;;;;13.20;7.20;;;;;;;;;;5035020;28;20486;-65
2022/10/11 09:40:47;;;;;;;9.02;6.95;;;;;;;;;;5033154;28;20504;-66
2022/10/11 09:43:13;;;;;;;7.55;6.60;;;;;;;;;;5024028;28;20030;-66
2022/10/11 09:45:43;;;;;;;11.02;6.88;;;;;;;;;;5014805;28;20046;-66
2022/10/11 09:48:16;;;;;;;13.10;6.82;;;;;;;;;;5015834;28;20401;-66
2022/10/11 09:50:44;;;;;;;11.45;7.18;;;;;;;;;;5032027;28;20401;-67
2022/10/11 09:53:09;;;;;;;9.43;7.05;;;;;;;;;;5018040;28;20079;-66
2022/10/11 09:55:38;;;;;;;9.98;6.40;;;;;;;;;;5013630;28;20417;-66
2022/10/11 09:58:05;;;;;;;9.27;6.88;;;;;;;;;;5014917;28;20117;-66
2022/10/11 10:00:32;;;;;;;11.43;6.70;;;;;;;;;;5014472;28;20504;-66
2022/10/11 10:03:01;;;;;;;9.30;6.75;;;;;;;;;;5014612;28;20030;-67
2022/10/11 10:05:35;;;;;;;9.93;6.70;;;;;;;;;;5014961;28;20022;-66
2022/10/11 10:08:19;;;;;;;10.75;6.65;;;;;;;;;;5014595;28;20420;-68
2022/10/11 10:10:57;;;;;;;8.95;7.15;;;;;;;;;;5014468;28;20044;-72
2022/10/11 10:13:28;;;;;;;10.82;6.85;;;;;;;;;;5018102;28;20060;-66
2022/10/11 10:16:00;;;;;;;11.15;6.80;;;;;;;;;;5014264;28;20378;-70
2022/10/11 10:18:54;;;;;;;12.70;7.45;;;;;;;;;;5018363;28;20037;-70
2022/10/11 10:21:27;;;;;;;11.20;7.05;;;;;;;;;;5026985;28;20033;-67
2022/10/11 10:23:56;;;;;;;10.07;6.90;;;;;;;;;;5033097;28;20042;-67
2022/10/11 10:26:24;;;;;;;8.68;6.95;;;;;;;;;;5019783;28;20473;-70
2022/10/11 10:29:10;;;;;;;11.82;6.82;;;;;;;;;;5023186;28;20155;-70
2022/10/11 10:31:37;;;;;;;8.50;6.75;;;;;;;;;;5014770;28;20037;-71
2022/10/11 10:34:10;;;;;;;9.18;6.75;;;;;;;;;;5019913;28;20116;-71
2022/10/11 10:36:39;;;;;;;11.70;6.88;;;;;;;;;;5024454;28;20026;-68
2022/10/11 10:39:44;;;;;;;10.52;7.03;;;;;;;;;;5033552;28;20029;-67
2022/10/11 10:42:14;;;;;;;8.52;6.75;;;;;;;;;;5033641;28;20404;-69
2022/10/11 10:44:40;;;;;;;9.65;6.40;;;;;;;;;;5033542;28;20033;-71
2022/10/11 10:47:24;;;;;;;9.63;6.70;;;;;;;;;;5033679;28;20030;-69
2022/10/11 10:50:07;;;;;;;10.00;6.90;;;;;;;;;;5033833;28;20025;-72
2022/10/11 10:52:46;;;;;;;9.48;6.65;;;;;;;;;;5028998;28;20072;-68
2022/10/11 10:55:27;;;;;;;9.27;7.10;;;;;;;;;;5032385;28;20485;-68
2022/10/11 10:58:20;;;;;;;8.95;6.93;;;;;;;;;;5033420;28;20034;-69
2022/10/11 11:00:59;;;;;;;12.45;6.60;;;;;;;;;;5033330;28;20052;-68
2022/10/11 11:03:54;;;;;;;11.33;7.03;;;;;;;;;;5032759;28;20049;-68
2022/10/11 11:06:45;;;;;;;8.70;6.57;;;;;;;;;;5029042;28;20527;-68
2022/10/11 11:09:19;;;;;;;12.43;7.22;;;;;;;;;;5031760;28;20034;-69
2022/10/11 11:11:53;;;;;;;9.93;7.03;;;;;;;;;;5031455;28;20033;-69
2022/10/11 11:14:37;;;;;;;11.73;6.95;;;;;;;;;;5031462;28;20532;-70
2022/10/11 11:17:22;;;;;;;11.57;7.00;;;;;;;;;;5029806;28;20091;-69
2022/10/11 11:20:00;;;;;;;11.20;7.50;;;;;;;;;;5031423;28;20029;-69
2022/10/11 11:23:07;;;;;;;12.57;6.60;;;;;;;;;;5031305;28;20048;-70
2022/10/11 11:25:57;;;;;;;9.60;6.72;;;;;;;;;;5030733;28;20056;-69
2022/10/11 11:28:46;;;;;;;;;;;;;;;;;;5032130;28;20108;-69
2022/10/11 11:31:41;;;;;;;11.43;6.93;;;;;;;;;;5031232;28;19964;-69
2022/10/11 11:34:24;;;;;;;8.82;6.70;;;;;;;;;;5031221;28;20546;-69
2022/10/11 11:36:59;;;;;;;10.07;6.63;;;;;;;;;;5031095;28;20532;-69
2022/10/11 11:39:30;;;;;;;11.15;6.93;;;;;;;;;;5012525;28;20056;-68
2022/10/11 11:42:13;;;;;;;8.52;6.57;;;;;;;;;;5030791;28;20029;-68
2022/10/11 11:44:45;;;;;;;7.88;6.50;;;;;;;;;;5031051;28;20057;-69
2022/10/11 11:47:26;;;;;;;9.90;6.60;;;;;;;;;;5030958;28;20021;-68
2022/10/11 11:50:04;;;;;;;9.40;6.50;;;;;;;;;;5031021;28;20021;-68
2022/10/11 11:52:37;;;;;;;8.35;6.47;;;;;;;;;;5030836;28;20021;-69
2022/10/11 11:55:29;;;;;;;10.98;6.80;;;;;;;;;;5030768;28;20021;-69
2022/10/11 11:58:22;;;;;;;9.00;7.22;;;;;;;;;;5011358;28;20037;-69
2022/10/11 12:01:02;;;;;;;7.22;6.35;;;;;;;;;;5011529;28;20117;-69
2022/10/11 12:03:33;;;;;;;7.97;6.82;;;;;;;;;;5009726;28;20022;-69
2022/10/11 12:06:10;;;;;;;10.82;6.97;;;;;;;;;;5011398;28;20042;-69
2022/10/11 12:08:37;;;;;;;10.60;7.10;;;;;;;;;;5024396;28;20038;-69
2022/10/11 12:11:03;;;;;;;8.02;6.47;;;;;;;;;;5030678;28;20044;-69
2022/10/11 12:13:36;;;;;;;9.88;6.60;;;;;;;;;;5030794;28;20033;-68
2022/10/11 12:16:15;;;;;;;10.85;7.32;;;;;;;;;;5030410;28;20111;-69
2022/10/11 12:18:57;;;;;;;10.40;7.13;;;;;;;;;;5029558;28;20041;-68
2022/10/11 12:21:29;;;;;;;8.98;6.65;;;;;;;;;;5029280;28;20037;-68
2022/10/11 12:24:19;;;;;;;9.80;7.00;;;;;;;;;;5030653;28;20056;-69
2022/10/11 12:26:58;;;;;;;10.82;7.32;;;;;;;;;;5030125;28;20061;-68
2022/10/11 12:29:48;;;;;;;8.40;6.67;;;;;;;;;;5029106;28;20065;-69
2022/10/11 12:32:25;;;;;;;9.70;6.85;;;;;;;;;;5011067;28;20026;-69
2022/10/11 12:35:29;;;;;;;7.88;6.68;;;;;;;;;;5026510;28;20040;-70
2022/10/11 12:38:05;;;;;;;9.90;6.95;;;;;;;;;;5029509;28;20127;-70
2022/10/11 12:40:40;;;;;;;8.98;6.78;;;;;;;;;;5030203;28;20061;-70
2022/10/11 12:43:27;;;;;;;8.52;6.75;;;;;;;;;;5011181;28;20037;-68
2022/10/11 12:45:53;;;;;;;10.68;6.85;;;;;;;;;;5010482;28;20502;-70
2022/10/11 12:48:50;;;;;;;7.97;6.47;;;;;;;;;;5010670;28;20044;-67
2022/10/11 12:51:33;;;;;;;9.02;6.40;;;;;;;;;;5008461;28;20030;-66
2022/10/11 12:54:14;;;;;;;10.70;6.78;;;;;;;;;;5010513;28;20061;-66
2022/10/11 12:56:47;;;;;;;8.82;6.22;;;;;;;;;;5010610;28;20466;-66
2022/10/11 12:59:19;;;;;;;12.38;5.90;;;;;;;;;;5010701;28;20026;-67
2022/10/11 13:01:56;;;;;;;10.35;6.25;;;;;;;;;;5010306;28;20500;-67
2022/10/11 13:04:28;;;;;;;11.93;6.78;;;;;;;;;;5010280;28;20544;-67
2022/10/11 13:07:11;;;;;;;9.95;5.95;;;;;;;;;;5010263;28;20088;-67
2022/10/11 13:09:39;;;;;;;8.95;6.53;;;;;;;;;;5010566;28;20125;-67
2022/10/11 13:12:08;;;;;;;8.85;6.13;;;;;;;;;;5010348;28;20026;-68
2022/10/11 13:15:03;;;;;;;12.53;6.10;;;;;;;;;;5010413;28;20022;-67
2022/10/11 13:17:38;;;;;;;6.03;5.43;;;;;;;;;;5009970;28;20065;-67
2022/10/11 13:20:18;;;;;;;10.35;6.30;;;;;;;;;;5010363;28;20029;-66
2022/10/11 13:22:54;;;;;;;10.23;6.30;;;;;;;;;;5010748;28;20037;-66
2022/10/11 13:25:23;;;;;;;10.02;5.93;;;;;;;;;;5010640;28;20030;-66
2022/10/11 13:27:51;;;;;;;8.20;6.25;;;;;;;;;;5010272;28;20419;-67
2022/10/11 13:30:22;;;;;;;16.35;6.90;;;;;;;;;;5013130;28;20092;-66
2022/10/11 13:32:51;;;;;;;13.70;6.45;;;;;;;;;;5013812;28;20505;-66
2022/10/11 13:35:37;;;;;;;10.23;6.07;;;;;;;;;;5031553;28;20037;-67
2022/10/11 13:38:06;;;;;;;7.75;5.78;;;;;;;;;;5013667;28;20048;-66
2022/10/11 13:40:33;;;;;;;10.25;6.20;;;;;;;;;;5013953;28;20070;-66
2022/10/11 13:42:58;;;;;;;12.85;5.80;;;;;;;;;;5026433;28;20041;-67
2022/10/11 13:45:26;;;;;;;7.80;5.95;;;;;;;;;;5033171;28;20551;-66
2022/10/11 13:47:53;;;;;;;8.93;5.80;;;;;;;;;;5033279;28;20022;-67
2022/10/11 13:50:33;;;;;;;6.78;6.00;;;;;;;;;;5033363;28;20121;-66
2022/10/11 13:53:19;;;;;;;12.27;6.35;;;;;;;;;;5033179;28;20100;-66
2022/10/11 13:56:03;;;;;;;14.88;6.43;;;;;;;;;;5033136;28;20469;-67
2022/10/11 13:58:34;;;;;;;8.75;6.10;;;;;;;;;;5033203;28;20033;-66
2022/10/11 14:01:03;;;;;;;12.98;6.28;;;;;;;;;;5033448;28;20033;-68
2022/10/11 14:04:01;;;;;;;7.50;6.03;;;;;;;;;;5033157;28;20021;-67
2022/10/11 14:06:42;;;;;;;7.85;5.85;;;;;;;;;;5032910;28;20042;-67
2022/10/11 14:09:36;;;;;;;9.68;6.13;;;;;;;;;;5032885;28;20100;-67
2022/10/11 14:12:26;;;;;;;10.30;6.30;;;;;;;;;;5032798;28;20029;-67
2022/10/11 14:14:52;;;;;;;9.73;6.10;;;;;;;;;;5032820;28;20172;-67
2022/10/11 14:17:39;;;;;;;10.93;6.30;;;;;;;;;;5033028;28;20108;-67
2022/10/11 14:20:16;;;;;;;9.27;5.85;;;;;;;;;;5033035;28;20155;-67
2022/10/11 14:22:42;;;;;;;10.70;5.60;;;;;;;;;;5033081;28;20190;-66
2022/10/11 14:25:08;;;;;;;7.75;6.38;;;;;;;;;;5032572;28;20037;-66
2022/10/11 14:27:35;;;;;;;9.95;6.47;;;;;;;;;;5032626;28;20071;-66
2022/10/11 14:30:01;;;;;;;9.45;6.80;;;;;;;;;;5032629;28;20381;-66
2022/10/11 14:32:32;;;;;;;14.30;6.22;;;;;;;;;;5031209;28;20029;-66
2022/10/11 14:34:57;;;;;;;12.00;6.57;;;;;;;;;;5032566;28;20030;-67
2022/10/11 14:37:26;;;;;;;8.27;6.57;;;;;;;;;;5032405;28;20025;-67
2022/10/11 14:39:52;;;;;;;11.60;6.70;;;;;;;;;;5032190;28;20377;-67
2022/10/11 14:42:17;;;;;;;10.25;6.38;;;;;;;;;;5031967;28;20025;-68
2022/10/11 14:44:43;;;;;;;8.15;6.03;;;;;;;;;;5032137;28;20050;-67
2022/10/11 14:47:14;;;;;;;9.45;6.00;;;;;;;;;;5032156;28;20099;-71
2022/10/11 14:49:40;;;;;;;13.27;6.60;;;;;;;;;;5032180;28;20477;-65
2022/10/11 14:54:55;;;;;;;11.45;6.35;;;;;;;;;;5068251;28;20400;-62
2022/10/11 14:57:20;;;;;;;9.55;6.60;;;;;;;;;;5068151;28;20041;-67
2022/10/11 14:59:46;;;;;;;12.77;6.70;;;;;;;;;;5068083;28;20017;-64
2022/10/11 15:02:11;;;;;;;11.70;6.90;;;;;;;;;;5068096;28;20033;-63
2022/10/11 15:04:37;;;;;;;11.23;6.90;;;;;;;;;;5067877;28;20031;-68
2022/10/11 15:07:03;;;;;;;13.13;6.88;;;;;;;;;;5067902;28;20017;-67